sensor_id;sensor_type;location;lat;lon;timestamp;P1;durP1;ratioP1;P2;durP2;ratioP2
8480;SDS011;4277;51.354;6.740;2023-10-13T00:00:25;14.77;;;10.35;;
8480;SDS011;4277;51.354;6.740;2023-10-13T00:02:51;16.98;;;10.05;;
8480;SDS011;4277;51.354;6.740;2023-10-13T00:05:21;14.10;;;8.82;;
8480;SDS011;4277;51.354;6.740;2023-10-13T00:07:47;13.57;;;9.27;;
8480;SDS011;4277;51.354;6.740;2023-10-13T00:10:14;12.57;;;9.52;;
8480;SDS011;4277;51.354;6.740;2023-10-13T00:12:43;12.95;;;9.15;;
8480;SDS011;4277;51.354;6.740;2023-10-13T00:15:15;11.70;;;9.48;;
8480;SDS011;4277;51.354;6.740;2023-10-13T00:17:42;14.93;;;9.70;;
8480;SDS011;4277;51.354;6.740;2023-10-13T00:20:08;13.98;;;9.23;;
8480;SDS011;4277;51.354;6.740;2023-10-13T00:22:57;16.17;;;9.90;;
8480;SDS011;4277;51.354;6.740;2023-10-13T00:25:24;14.40;;;9.35;;
8480;SDS011;4277;51.354;6.740;2023-10-13T00:27:56;11.38;;;8.75;;
8480;SDS011;4277;51.354;6.740;2023-10-13T00:30:23;14.95;;;9.10;;
8480;SDS011;4277;51.354;6.740;2023-10-13T00:32:58;14.05;;;9.32;;
8480;SDS011;4277;51.354;6.740;2023-10-13T00:35:27;13.32;;;9.05;;
8480;SDS011;4277;51.354;6.740;2023-10-13T00:37:57;12.82;;;9.30;;
8480;SDS011;4277;51.354;6.740;2023-10-13T00:40:29;14.10;;;9.63;;
8480;SDS011;4277;51.354;6.740;2023-10-13T00:42:55;10.45;;;9.00;;
8480;SDS011;4277;51.354;6.740;2023-10-13T00:45:41;13.35;;;8.85;;
8480;SDS011;4277;51.354;6.740;2023-10-13T00:48:09;14.15;;;9.65;;
8480;SDS011;4277;51.354;6.740;2023-10-13T00:50:36;14.90;;;8.88;;
8480;SDS011;4277;51.354;6.740;2023-10-13T00:53:03;16.05;;;9.25;;
8480;SDS011;4277;51.354;6.740;2023-10-13T00:55:29;11.98;;;9.50;;
8480;SDS011;4277;51.354;6.740;2023-10-13T00:57:58;10.65;;;8.63;;
8480;SDS011;4277;51.354;6.740;2023-10-13T01:00:31;12.23;;;9.32;;
8480;SDS011;4277;51.354;6.740;2023-10-13T01:02:57;11.15;;;8.88;;
8480;SDS011;4277;51.354;6.740;2023-10-13T01:05:30;13.50;;;9.50;;
8480;SDS011;4277;51.354;6.740;2023-10-13T01:08:00;12.95;;;9.05;;
8480;SDS011;4277;51.354;6.740;2023-10-13T01:10:26;15.20;;;9.48;;
8480;SDS011;4277;51.354;6.740;2023-10-13T01:12:54;12.35;;;9.57;;
8480;SDS011;4277;51.354;6.740;2023-10-13T01:15:20;15.43;;;9.35;;
8480;SDS011;4277;51.354;6.740;2023-10-13T01:17:46;13.70;;;9.43;;
8480;SDS011;4277;51.354;6.740;2023-10-13T01:20:13;14.15;;;9.57;;
8480;SDS011;4277;51.354;6.740;2023-10-13T01:22:49;13.27;;;8.65;;
8480;SDS011;4277;51.354;6.740;2023-10-13T01:25:24;16.05;;;9.27;;
8480;SDS011;4277;51.354;6.740;2023-10-13T01:27:52;11.40;;;8.77;;
8480;SDS011;4277;51.354;6.740;2023-10-13T01:30:18;11.98;;;9.85;;
8480;SDS011;4277;51.354;6.740;2023-10-13T01:32:51;12.15;;;8.77;;
8480;SDS011;4277;51.354;6.740;2023-10-13T01:35:19;14.05;;;9.93;;
8480;SDS011;4277;51.354;6.740;2023-10-13T01:37:52;17.35;;;10.55;;
8480;SDS011;4277;51.354;6.740;2023-10-13T01:40:18;13.18;;;9.95;;
8480;SDS011;4277;51.354;6.740;2023-10-13T01:42:45;15.32;;;10.55;;
8480;SDS011;4277;51.354;6.740;2023-10-13T01:45:11;14.75;;;9.68;;
8480;SDS011;4277;51.354;6.740;2023-10-13T01:47:39;13.35;;;10.13;;
8480;SDS011;4277;51.354;6.740;2023-10-13T01:50:06;14.23;;;10.48;;
8480;SDS011;4277;51.354;6.740;2023-10-13T01:52:44;19.08;;;11.18;;
8480;SDS011;4277;51.354;6.740;2023-10-13T01:55:10;15.85;;;11.00;;
8480;SDS011;4277;51.354;6.740;2023-10-13T01:57:36;19.33;;;11.57;;
8480;SDS011;4277;51.354;6.740;2023-10-13T02:00:02;18.35;;;11.00;;
8480;SDS011;4277;51.354;6.740;2023-10-13T02:02:36;13.05;;;10.05;;
8480;SDS011;4277;51.354;6.740;2023-10-13T02:05:09;12.35;;;9.88;;
8480;SDS011;4277;51.354;6.740;2023-10-13T02:07:35;16.20;;;10.95;;
8480;SDS011;4277;51.354;6.740;2023-10-13T02:10:03;13.57;;;10.75;;
8480;SDS011;4277;51.354;6.740;2023-10-13T02:12:30;15.10;;;11.07;;
8480;SDS011;4277;51.354;6.740;2023-10-13T02:15:08;16.38;;;10.82;;
8480;SDS011;4277;51.354;6.740;2023-10-13T02:17:37;11.85;;;10.60;;
8480;SDS011;4277;51.354;6.740;2023-10-13T02:20:06;15.87;;;10.43;;
8480;SDS011;4277;51.354;6.740;2023-10-13T02:22:35;16.60;;;11.32;;
8480;SDS011;4277;51.354;6.740;2023-10-13T02:25:03;13.13;;;10.40;;
8480;SDS011;4277;51.354;6.740;2023-10-13T02:27:32;16.58;;;10.70;;
8480;SDS011;4277;51.354;6.740;2023-10-13T02:30:07;16.08;;;11.00;;
8480;SDS011;4277;51.354;6.740;2023-10-13T02:32:38;14.27;;;10.75;;
8480;SDS011;4277;51.354;6.740;2023-10-13T02:35:08;13.13;;;10.13;;
8480;SDS011;4277;51.354;6.740;2023-10-13T02:37:40;13.57;;;10.23;;
8480;SDS011;4277;51.354;6.740;2023-10-13T02:40:09;13.85;;;10.35;;
8480;SDS011;4277;51.354;6.740;2023-10-13T02:42:35;16.58;;;9.95;;
8480;SDS011;4277;51.354;6.740;2023-10-13T02:45:01;11.45;;;9.90;;
8480;SDS011;4277;51.354;6.740;2023-10-13T02:47:29;15.98;;;10.23;;
8480;SDS011;4277;51.354;6.740;2023-10-13T02:49:56;11.57;;;10.00;;
8480;SDS011;4277;51.354;6.740;2023-10-13T02:52:36;12.57;;;10.15;;
8480;SDS011;4277;51.354;6.740;2023-10-13T02:55:06;13.85;;;10.00;;
8480;SDS011;4277;51.354;6.740;2023-10-13T02:57:35;16.40;;;10.57;;
8480;SDS011;4277;51.354;6.740;2023-10-13T03:00:01;14.10;;;10.27;;
8480;SDS011;4277;51.354;6.740;2023-10-13T03:02:47;14.43;;;10.50;;
8480;SDS011;4277;51.354;6.740;2023-10-13T03:05:23;13.82;;;10.52;;
8480;SDS011;4277;51.354;6.740;2023-10-13T03:07:49;13.20;;;10.48;;
8480;SDS011;4277;51.354;6.740;2023-10-13T03:10:15;12.88;;;10.15;;
8480;SDS011;4277;51.354;6.740;2023-10-13T03:12:44;13.73;;;10.48;;
8480;SDS011;4277;51.354;6.740;2023-10-13T03:15:14;15.17;;;11.17;;
8480;SDS011;4277;51.354;6.740;2023-10-13T03:17:44;16.40;;;10.80;;
8480;SDS011;4277;51.354;6.740;2023-10-13T03:20:11;14.13;;;11.02;;
8480;SDS011;4277;51.354;6.740;2023-10-13T03:22:44;17.27;;;11.60;;
8480;SDS011;4277;51.354;6.740;2023-10-13T03:25:13;16.07;;;11.27;;
8480;SDS011;4277;51.354;6.740;2023-10-13T03:27:59;18.35;;;11.65;;
8480;SDS011;4277;51.354;6.740;2023-10-13T03:30:25;20.42;;;12.18;;
8480;SDS011;4277;51.354;6.740;2023-10-13T03:33:04;13.70;;;11.48;;
8480;SDS011;4277;51.354;6.740;2023-10-13T03:35:33;15.97;;;10.60;;
8480;SDS011;4277;51.354;6.740;2023-10-13T03:38:03;13.00;;;11.57;;
8480;SDS011;4277;51.354;6.740;2023-10-13T03:40:29;16.00;;;11.73;;
8480;SDS011;4277;51.354;6.740;2023-10-13T03:42:56;18.58;;;12.73;;
8480;SDS011;4277;51.354;6.740;2023-10-13T03:45:38;15.80;;;12.30;;
8480;SDS011;4277;51.354;6.740;2023-10-13T03:50:34;13.95;;;12.10;;
8480;SDS011;4277;51.354;6.740;2023-10-13T03:53:01;16.57;;;13.23;;
8480;SDS011;4277;51.354;6.740;2023-10-13T03:55:27;16.75;;;12.10;;
8480;SDS011;4277;51.354;6.740;2023-10-13T03:57:54;15.82;;;12.43;;
8480;SDS011;4277;51.354;6.740;2023-10-13T04:00:20;17.00;;;12.43;;
8480;SDS011;4277;51.354;6.740;2023-10-13T04:02:51;19.10;;;12.63;;
8480;SDS011;4277;51.354;6.740;2023-10-13T04:05:36;18.40;;;12.50;;
8480;SDS011;4277;51.354;6.740;2023-10-13T04:08:06;16.83;;;12.82;;
8480;SDS011;4277;51.354;6.740;2023-10-13T04:10:54;15.25;;;12.65;;
8480;SDS011;4277;51.354;6.740;2023-10-13T04:13:20;15.15;;;12.30;;
8480;SDS011;4277;51.354;6.740;2023-10-13T04:16:12;20.23;;;13.70;;
8480;SDS011;4277;51.354;6.740;2023-10-13T04:18:50;17.45;;;12.38;;
8480;SDS011;4277;51.354;6.740;2023-10-13T04:21:22;16.85;;;12.93;;
8480;SDS011;4277;51.354;6.740;2023-10-13T04:24:10;18.90;;;12.80;;
8480;SDS011;4277;51.354;6.740;2023-10-13T04:26:42;16.02;;;12.73;;
8480;SDS011;4277;51.354;6.740;2023-10-13T04:29:27;16.65;;;12.98;;
8480;SDS011;4277;51.354;6.740;2023-10-13T04:32:10;19.95;;;13.95;;
8480;SDS011;4277;51.354;6.740;2023-10-13T04:34:39;19.83;;;13.35;;
8480;SDS011;4277;51.354;6.740;2023-10-13T04:37:10;21.58;;;13.35;;
8480;SDS011;4277;51.354;6.740;2023-10-13T04:39:57;20.48;;;13.23;;
8480;SDS011;4277;51.354;6.740;2023-10-13T04:42:35;16.98;;;13.20;;
8480;SDS011;4277;51.354;6.740;2023-10-13T04:45:19;18.58;;;13.85;;
8480;SDS011;4277;51.354;6.740;2023-10-13T04:48:00;16.00;;;13.65;;
8480;SDS011;4277;51.354;6.740;2023-10-13T04:50:48;18.48;;;13.88;;
8480;SDS011;4277;51.354;6.740;2023-10-13T04:53:37;17.20;;;13.27;;
8480;SDS011;4277;51.354;6.740;2023-10-13T04:56:22;17.02;;;12.93;;
8480;SDS011;4277;51.354;6.740;2023-10-13T04:59:23;18.08;;;13.27;;
8480;SDS011;4277;51.354;6.740;2023-10-13T05:02:02;21.52;;;14.15;;
8480;SDS011;4277;51.354;6.740;2023-10-13T05:05:04;17.30;;;13.73;;
8480;SDS011;4277;51.354;6.740;2023-10-13T05:07:31;18.67;;;13.43;;
8480;SDS011;4277;51.354;6.740;2023-10-13T05:10:16;18.60;;;13.80;;
8480;SDS011;4277;51.354;6.740;2023-10-13T05:13:01;19.93;;;13.93;;
8480;SDS011;4277;51.354;6.740;2023-10-13T05:15:49;19.40;;;13.50;;
8480;SDS011;4277;51.354;6.740;2023-10-13T05:18:34;17.55;;;13.70;;
8480;SDS011;4277;51.354;6.740;2023-10-13T05:21:19;19.30;;;13.85;;
8480;SDS011;4277;51.354;6.740;2023-10-13T05:24:04;20.58;;;13.70;;
8480;SDS011;4277;51.354;6.740;2023-10-13T05:26:49;19.83;;;14.33;;
8480;SDS011;4277;51.354;6.740;2023-10-13T05:29:34;17.80;;;13.60;;
8480;SDS011;4277;51.354;6.740;2023-10-13T05:32:19;19.00;;;13.17;;
8480;SDS011;4277;51.354;6.740;2023-10-13T05:35:04;23.98;;;14.38;;
8480;SDS011;4277;51.354;6.740;2023-10-13T05:37:53;22.70;;;14.80;;
8480;SDS011;4277;51.354;6.740;2023-10-13T05:40:38;18.40;;;14.07;;
8480;SDS011;4277;51.354;6.740;2023-10-13T05:43:22;22.38;;;13.85;;
8480;SDS011;4277;51.354;6.740;2023-10-13T05:46:07;20.95;;;14.20;;
8480;SDS011;4277;51.354;6.740;2023-10-13T05:49:00;21.60;;;13.32;;
8480;SDS011;4277;51.354;6.740;2023-10-13T05:51:30;18.98;;;12.93;;
8480;SDS011;4277;51.354;6.740;2023-10-13T05:54:13;19.17;;;12.43;;
8480;SDS011;4277;51.354;6.740;2023-10-13T05:56:39;18.33;;;12.73;;
8480;SDS011;4277;51.354;6.740;2023-10-13T05:59:24;15.23;;;11.32;;
8480;SDS011;4277;51.354;6.740;2023-10-13T06:02:09;15.10;;;10.93;;
8480;SDS011;4277;51.354;6.740;2023-10-13T06:04:54;16.00;;;10.77;;
8480;SDS011;4277;51.354;6.740;2023-10-13T06:07:38;15.50;;;10.23;;
8480;SDS011;4277;51.354;6.740;2023-10-13T06:10:23;17.17;;;10.82;;
8480;SDS011;4277;51.354;6.740;2023-10-13T06:13:08;19.15;;;10.32;;
8480;SDS011;4277;51.354;6.740;2023-10-13T06:15:52;17.65;;;9.52;;
8480;SDS011;4277;51.354;6.740;2023-10-13T06:18:37;16.87;;;9.60;;
8480;SDS011;4277;51.354;6.740;2023-10-13T06:21:21;13.80;;;8.70;;
8480;SDS011;4277;51.354;6.740;2023-10-13T06:24:07;17.63;;;8.48;;
8480;SDS011;4277;51.354;6.740;2023-10-13T06:26:51;17.02;;;7.97;;
8480;SDS011;4277;51.354;6.740;2023-10-13T06:29:36;16.02;;;7.72;;
8480;SDS011;4277;51.354;6.740;2023-10-13T06:32:02;14.10;;;7.72;;
8480;SDS011;4277;51.354;6.740;2023-10-13T06:34:35;14.35;;;7.50;;
8480;SDS011;4277;51.354;6.740;2023-10-13T06:37:25;14.50;;;7.80;;
8480;SDS011;4277;51.354;6.740;2023-10-13T06:39:52;15.68;;;7.63;;
8480;SDS011;4277;51.354;6.740;2023-10-13T06:42:27;15.00;;;7.63;;
8480;SDS011;4277;51.354;6.740;2023-10-13T06:44:54;16.95;;;8.10;;
8480;SDS011;4277;51.354;6.740;2023-10-13T06:47:20;12.77;;;7.70;;
8480;SDS011;4277;51.354;6.740;2023-10-13T06:49:46;15.98;;;8.45;;
8480;SDS011;4277;51.354;6.740;2023-10-13T06:52:16;17.42;;;8.57;;
8480;SDS011;4277;51.354;6.740;2023-10-13T06:54:42;20.48;;;9.25;;
8480;SDS011;4277;51.354;6.740;2023-10-13T06:57:08;18.15;;;8.75;;
8480;SDS011;4277;51.354;6.740;2023-10-13T06:59:42;17.50;;;9.05;;
8480;SDS011;4277;51.354;6.740;2023-10-13T07:02:08;18.70;;;9.30;;
8480;SDS011;4277;51.354;6.740;2023-10-13T07:04:35;13.68;;;8.15;;
8480;SDS011;4277;51.354;6.740;2023-10-13T07:07:04;16.60;;;8.40;;
8480;SDS011;4277;51.354;6.740;2023-10-13T07:09:31;15.90;;;8.88;;
8480;SDS011;4277;51.354;6.740;2023-10-13T07:12:00;15.10;;;8.52;;
8480;SDS011;4277;51.354;6.740;2023-10-13T07:14:27;17.08;;;8.48;;
8480;SDS011;4277;51.354;6.740;2023-10-13T07:16:57;16.60;;;8.82;;
8480;SDS011;4277;51.354;6.740;2023-10-13T07:19:24;13.23;;;8.55;;
8480;SDS011;4277;51.354;6.740;2023-10-13T07:21:53;16.13;;;9.20;;
8480;SDS011;4277;51.354;6.740;2023-10-13T07:24:23;14.88;;;8.85;;
8480;SDS011;4277;51.354;6.740;2023-10-13T07:26:49;17.88;;;9.20;;
8480;SDS011;4277;51.354;6.740;2023-10-13T07:29:26;15.38;;;9.93;;
8480;SDS011;4277;51.354;6.740;2023-10-13T07:31:52;16.27;;;9.73;;
8480;SDS011;4277;51.354;6.740;2023-10-13T07:34:18;15.98;;;9.65;;
8480;SDS011;4277;51.354;6.740;2023-10-13T07:36:57;17.13;;;10.32;;
8480;SDS011;4277;51.354;6.740;2023-10-13T07:39:27;19.45;;;11.23;;
8480;SDS011;4277;51.354;6.740;2023-10-13T07:41:58;15.73;;;10.88;;
8480;SDS011;4277;51.354;6.740;2023-10-13T07:44:44;17.45;;;10.68;;
8480;SDS011;4277;51.354;6.740;2023-10-13T07:47:13;16.50;;;11.25;;
8480;SDS011;4277;51.354;6.740;2023-10-13T07:49:40;13.90;;;9.90;;
8480;SDS011;4277;51.354;6.740;2023-10-13T07:52:10;13.82;;;10.93;;
8480;SDS011;4277;51.354;6.740;2023-10-13T07:54:45;18.35;;;10.38;;
8480;SDS011;4277;51.354;6.740;2023-10-13T07:57:20;15.05;;;9.70;;
8480;SDS011;4277;51.354;6.740;2023-10-13T07:59:53;15.77;;;8.50;;
8480;SDS011;4277;51.354;6.740;2023-10-13T08:02:31;13.88;;;9.35;;
8480;SDS011;4277;51.354;6.740;2023-10-13T08:05:13;12.93;;;9.20;;
8480;SDS011;4277;51.354;6.740;2023-10-13T08:07:49;15.40;;;9.68;;
8480;SDS011;4277;51.354;6.740;2023-10-13T08:10:15;16.95;;;8.90;;
8480;SDS011;4277;51.354;6.740;2023-10-13T08:12:42;11.48;;;8.07;;
8480;SDS011;4277;51.354;6.740;2023-10-13T08:15:09;15.30;;;8.45;;
8480;SDS011;4277;51.354;6.740;2023-10-13T08:17:46;16.02;;;8.20;;
8480;SDS011;4277;51.354;6.740;2023-10-13T08:20:16;11.90;;;8.40;;
8480;SDS011;4277;51.354;6.740;2023-10-13T08:22:43;17.13;;;8.50;;
8480;SDS011;4277;51.354;6.740;2023-10-13T08:25:12;11.80;;;7.28;;
8480;SDS011;4277;51.354;6.740;2023-10-13T08:28:10;19.80;;;8.57;;
8480;SDS011;4277;51.354;6.740;2023-10-13T08:30:55;15.15;;;7.90;;
8480;SDS011;4277;51.354;6.740;2023-10-13T08:33:21;18.50;;;8.25;;
8480;SDS011;4277;51.354;6.740;2023-10-13T08:35:51;10.25;;;6.95;;
8480;SDS011;4277;51.354;6.740;2023-10-13T08:38:37;17.05;;;8.05;;
8480;SDS011;4277;51.354;6.740;2023-10-13T08:41:20;13.93;;;7.55;;
8480;SDS011;4277;51.354;6.740;2023-10-13T08:43:51;17.52;;;7.28;;
8480;SDS011;4277;51.354;6.740;2023-10-13T08:46:18;13.48;;;7.30;;
8480;SDS011;4277;51.354;6.740;2023-10-13T08:48:55;14.25;;;7.38;;
8480;SDS011;4277;51.354;6.740;2023-10-13T08:51:53;18.02;;;7.13;;
8480;SDS011;4277;51.354;6.740;2023-10-13T08:54:52;17.27;;;7.53;;
8480;SDS011;4277;51.354;6.740;2023-10-13T08:57:37;13.45;;;6.65;;
8480;SDS011;4277;51.354;6.740;2023-10-13T09:00:05;14.45;;;6.30;;
8480;SDS011;4277;51.354;6.740;2023-10-13T09:02:51;14.98;;;5.88;;
8480;SDS011;4277;51.354;6.740;2023-10-13T09:05:36;12.68;;;5.78;;
8480;SDS011;4277;51.354;6.740;2023-10-13T09:08:26;13.45;;;5.80;;
8480;SDS011;4277;51.354;6.740;2023-10-13T09:11:00;10.90;;;5.65;;
8480;SDS011;4277;51.354;6.740;2023-10-13T09:13:37;13.57;;;5.60;;
8480;SDS011;4277;51.354;6.740;2023-10-13T09:16:09;11.50;;;5.10;;
8480;SDS011;4277;51.354;6.740;2023-10-13T09:18:41;11.52;;;5.63;;
8480;SDS011;4277;51.354;6.740;2023-10-13T09:21:11;11.32;;;5.28;;
8480;SDS011;4277;51.354;6.740;2023-10-13T09:24:13;18.02;;;5.40;;
8480;SDS011;4277;51.354;6.740;2023-10-13T09:26:58;11.75;;;5.18;;
8480;SDS011;4277;51.354;6.740;2023-10-13T09:29:27;9.15;;;5.07;;
8480;SDS011;4277;51.354;6.740;2023-10-13T09:32:00;9.75;;;5.00;;
8480;SDS011;4277;51.354;6.740;2023-10-13T09:34:27;12.50;;;5.88;;
8480;SDS011;4277;51.354;6.740;2023-10-13T09:36:57;10.05;;;5.05;;
8480;SDS011;4277;51.354;6.740;2023-10-13T09:39:26;16.17;;;5.38;;
8480;SDS011;4277;51.354;6.740;2023-10-13T09:41:59;11.25;;;5.50;;
8480;SDS011;4277;51.354;6.740;2023-10-13T09:44:26;14.05;;;5.43;;
8480;SDS011;4277;51.354;6.740;2023-10-13T09:47:01;11.35;;;5.05;;
8480;SDS011;4277;51.354;6.740;2023-10-13T09:49:42;11.40;;;5.40;;
8480;SDS011;4277;51.354;6.740;2023-10-13T09:52:19;11.63;;;5.70;;
8480;SDS011;4277;51.354;6.740;2023-10-13T09:54:55;12.07;;;5.03;;
8480;SDS011;4277;51.354;6.740;2023-10-13T09:57:26;13.48;;;4.63;;
8480;SDS011;4277;51.354;6.740;2023-10-13T10:00:06;11.70;;;5.13;;
8480;SDS011;4277;51.354;6.740;2023-10-13T10:02:40;11.70;;;5.22;;
8480;SDS011;4277;51.354;6.740;2023-10-13T10:05:09;7.47;;;5.00;;
8480;SDS011;4277;51.354;6.740;2023-10-13T10:07:56;11.18;;;5.75;;
8480;SDS011;4277;51.354;6.740;2023-10-13T10:10:24;10.75;;;5.68;;
8480;SDS011;4277;51.354;6.740;2023-10-13T10:13:07;8.60;;;5.18;;
8480;SDS011;4277;51.354;6.740;2023-10-13T10:15:40;12.68;;;5.63;;
8480;SDS011;4277;51.354;6.740;2023-10-13T10:18:22;11.00;;;5.82;;
8480;SDS011;4277;51.354;6.740;2023-10-13T10:20:50;19.15;;;5.88;;
8480;SDS011;4277;51.354;6.740;2023-10-13T10:23:27;11.00;;;5.50;;
8480;SDS011;4277;51.354;6.740;2023-10-13T10:26:09;16.27;;;6.05;;
8480;SDS011;4277;51.354;6.740;2023-10-13T10:28:37;11.35;;;5.63;;
8480;SDS011;4277;51.354;6.740;2023-10-13T10:31:04;12.15;;;5.65;;
8480;SDS011;4277;51.354;6.740;2023-10-13T10:33:34;12.68;;;5.85;;
8480;SDS011;4277;51.354;6.740;2023-10-13T10:36:00;12.48;;;6.03;;
8480;SDS011;4277;51.354;6.740;2023-10-13T10:38:26;9.70;;;5.95;;
8480;SDS011;4277;51.354;6.740;2023-10-13T10:45:52;10.30;;;6.07;;
8480;SDS011;4277;51.354;6.740;2023-10-13T10:48:24;9.98;;;5.93;;
8480;SDS011;4277;51.354;6.740;2023-10-13T10:50:56;8.82;;;6.07;;
8480;SDS011;4277;51.354;6.740;2023-10-13T10:53:24;15.25;;;6.95;;
8480;SDS011;4277;51.354;6.740;2023-10-13T10:56:08;10.75;;;6.03;;
8480;SDS011;4277;51.354;6.740;2023-10-13T10:58:56;14.65;;;6.40;;
8480;SDS011;4277;51.354;6.740;2023-10-13T11:01:22;9.93;;;5.90;;
8480;SDS011;4277;51.354;6.740;2023-10-13T11:04:01;11.00;;;6.00;;
8480;SDS011;4277;51.354;6.740;2023-10-13T11:06:36;12.85;;;5.90;;
8480;SDS011;4277;51.354;6.740;2023-10-13T11:09:10;11.90;;;5.95;;
8480;SDS011;4277;51.354;6.740;2023-10-13T11:11:52;11.98;;;6.40;;
8480;SDS011;4277;51.354;6.740;2023-10-13T11:14:28;12.02;;;5.80;;
8480;SDS011;4277;51.354;6.740;2023-10-13T11:16:55;13.50;;;6.00;;
8480;SDS011;4277;51.354;6.740;2023-10-13T11:19:39;15.02;;;6.25;;
8480;SDS011;4277;51.354;6.740;2023-10-13T11:22:16;14.27;;;6.30;;
8480;SDS011;4277;51.354;6.740;2023-10-13T11:24:57;15.25;;;6.10;;
8480;SDS011;4277;51.354;6.740;2023-10-13T11:27:31;14.93;;;6.03;;
8480;SDS011;4277;51.354;6.740;2023-10-13T11:30:29;12.13;;;5.80;;
8480;SDS011;4277;51.354;6.740;2023-10-13T11:33:10;12.95;;;6.18;;
8480;SDS011;4277;51.354;6.740;2023-10-13T11:35:37;13.15;;;5.85;;
8480;SDS011;4277;51.354;6.740;2023-10-13T11:38:19;14.98;;;5.80;;
8480;SDS011;4277;51.354;6.740;2023-10-13T11:40:52;9.70;;;5.47;;
8480;SDS011;4277;51.354;6.740;2023-10-13T11:43:54;15.50;;;6.55;;
8480;SDS011;4277;51.354;6.740;2023-10-13T11:46:32;13.13;;;5.50;;
8480;SDS011;4277;51.354;6.740;2023-10-13T11:49:02;10.68;;;5.43;;
8480;SDS011;4277;51.354;6.740;2023-10-13T11:51:47;16.25;;;6.00;;
8480;SDS011;4277;51.354;6.740;2023-10-13T11:54:20;15.30;;;6.10;;
8480;SDS011;4277;51.354;6.740;2023-10-13T11:56:48;17.02;;;5.60;;
8480;SDS011;4277;51.354;6.740;2023-10-13T11:59:15;13.07;;;5.03;;
8480;SDS011;4277;51.354;6.740;2023-10-13T12:01:51;16.33;;;5.78;;
8480;SDS011;4277;51.354;6.740;2023-10-13T12:04:36;11.27;;;5.30;;
8480;SDS011;4277;51.354;6.740;2023-10-13T12:07:22;16.77;;;5.43;;
8480;SDS011;4277;51.354;6.740;2023-10-13T12:10:06;12.20;;;5.50;;
8480;SDS011;4277;51.354;6.740;2023-10-13T12:12:40;13.65;;;5.53;;
8480;SDS011;4277;51.354;6.740;2023-10-13T12:15:08;15.82;;;5.35;;
8480;SDS011;4277;51.354;6.740;2023-10-13T12:17:38;16.77;;;5.40;;
8480;SDS011;4277;51.354;6.740;2023-10-13T12:20:09;16.33;;;5.72;;
8480;SDS011;4277;51.354;6.740;2023-10-13T12:22:37;15.75;;;5.13;;
8480;SDS011;4277;51.354;6.740;2023-10-13T12:25:16;14.07;;;5.22;;
8480;SDS011;4277;51.354;6.740;2023-10-13T12:27:54;17.17;;;5.38;;
8480;SDS011;4277;51.354;6.740;2023-10-13T12:30:37;15.27;;;5.15;;
8480;SDS011;4277;51.354;6.740;2023-10-13T12:33:17;17.88;;;5.45;;
8480;SDS011;4277;51.354;6.740;2023-10-13T12:35:54;21.80;;;5.63;;
8480;SDS011;4277;51.354;6.740;2023-10-13T12:38:39;17.80;;;5.68;;
8480;SDS011;4277;51.354;6.740;2023-10-13T12:41:11;18.67;;;5.57;;
8480;SDS011;4277;51.354;6.740;2023-10-13T12:44:13;18.33;;;5.63;;
8480;SDS011;4277;51.354;6.740;2023-10-13T12:46:57;14.25;;;5.25;;
8480;SDS011;4277;51.354;6.740;2023-10-13T12:49:42;18.08;;;5.32;;
8480;SDS011;4277;51.354;6.740;2023-10-13T12:52:11;20.92;;;5.78;;
8480;SDS011;4277;51.354;6.740;2023-10-13T12:55:01;17.88;;;4.95;;
8480;SDS011;4277;51.354;6.740;2023-10-13T12:57:35;14.55;;;5.38;;
8480;SDS011;4277;51.354;6.740;2023-10-13T13:00:08;22.23;;;5.65;;
8480;SDS011;4277;51.354;6.740;2023-10-13T13:02:42;16.52;;;4.88;;
8480;SDS011;4277;51.354;6.740;2023-10-13T13:05:08;14.98;;;5.10;;
8480;SDS011;4277;51.354;6.740;2023-10-13T13:07:38;20.48;;;5.05;;
8480;SDS011;4277;51.354;6.740;2023-10-13T13:10:17;18.95;;;5.75;;
8480;SDS011;4277;51.354;6.740;2023-10-13T13:12:43;19.83;;;5.43;;
8480;SDS011;4277;51.354;6.740;2023-10-13T13:15:09;22.77;;;5.50;;
8480;SDS011;4277;51.354;6.740;2023-10-13T13:17:37;18.80;;;6.38;;
8480;SDS011;4277;51.354;6.740;2023-10-13T13:20:04;21.27;;;5.72;;
8480;SDS011;4277;51.354;6.740;2023-10-13T13:22:36;16.25;;;5.65;;
8480;SDS011;4277;51.354;6.740;2023-10-13T13:25:02;18.00;;;5.35;;
8480;SDS011;4277;51.354;6.740;2023-10-13T13:27:32;16.23;;;5.10;;
8480;SDS011;4277;51.354;6.740;2023-10-13T13:29:58;16.13;;;5.25;;
8480;SDS011;4277;51.354;6.740;2023-10-13T13:32:25;19.38;;;5.32;;
8480;SDS011;4277;51.354;6.740;2023-10-13T13:34:53;20.10;;;5.35;;
8480;SDS011;4277;51.354;6.740;2023-10-13T13:37:23;17.05;;;5.60;;
8480;SDS011;4277;51.354;6.740;2023-10-13T13:39:52;19.17;;;5.65;;
8480;SDS011;4277;51.354;6.740;2023-10-13T13:42:18;22.95;;;5.70;;
8480;SDS011;4277;51.354;6.740;2023-10-13T13:44:45;16.75;;;5.10;;
8480;SDS011;4277;51.354;6.740;2023-10-13T13:47:14;17.23;;;5.32;;
8480;SDS011;4277;51.354;6.740;2023-10-13T13:49:40;16.48;;;5.38;;
8480;SDS011;4277;51.354;6.740;2023-10-13T13:52:11;21.73;;;5.60;;
8480;SDS011;4277;51.354;6.740;2023-10-13T13:54:43;17.15;;;5.18;;
8480;SDS011;4277;51.354;6.740;2023-10-13T13:57:09;24.23;;;5.70;;
8480;SDS011;4277;51.354;6.740;2023-10-13T13:59:35;18.77;;;5.25;;
8480;SDS011;4277;51.354;6.740;2023-10-13T14:02:02;19.40;;;5.50;;
8480;SDS011;4277;51.354;6.740;2023-10-13T14:04:44;15.82;;;4.90;;
8480;SDS011;4277;51.354;6.740;2023-10-13T14:07:11;15.55;;;5.00;;
8480;SDS011;4277;51.354;6.740;2023-10-13T14:09:37;20.23;;;5.30;;
8480;SDS011;4277;51.354;6.740;2023-10-13T14:12:09;15.18;;;5.35;;
8480;SDS011;4277;51.354;6.740;2023-10-13T14:14:53;12.95;;;5.13;;
8480;SDS011;4277;51.354;6.740;2023-10-13T14:17:22;15.68;;;4.95;;
8480;SDS011;4277;51.354;6.740;2023-10-13T14:19:56;17.80;;;5.38;;
8480;SDS011;4277;51.354;6.740;2023-10-13T14:22:22;22.08;;;5.50;;
8480;SDS011;4277;51.354;6.740;2023-10-13T14:24:50;20.10;;;5.40;;
8480;SDS011;4277;51.354;6.740;2023-10-13T14:27:19;20.65;;;5.32;;
8480;SDS011;4277;51.354;6.740;2023-10-13T14:29:50;21.42;;;5.30;;
8480;SDS011;4277;51.354;6.740;2023-10-13T14:32:21;20.20;;;4.85;;
8480;SDS011;4277;51.354;6.740;2023-10-13T14:34:50;20.00;;;5.20;;
8480;SDS011;4277;51.354;6.740;2023-10-13T14:37:19;14.90;;;5.15;;
8480;SDS011;4277;51.354;6.740;2023-10-13T14:39:54;16.58;;;5.35;;
8480;SDS011;4277;51.354;6.740;2023-10-13T14:42:22;16.58;;;4.65;;
8480;SDS011;4277;51.354;6.740;2023-10-13T14:44:48;14.73;;;4.88;;
8480;SDS011;4277;51.354;6.740;2023-10-13T14:47:20;15.13;;;4.88;;
8480;SDS011;4277;51.354;6.740;2023-10-13T14:49:49;17.85;;;5.18;;
8480;SDS011;4277;51.354;6.740;2023-10-13T14:52:15;23.35;;;5.15;;
8480;SDS011;4277;51.354;6.740;2023-10-13T14:54:42;14.60;;;4.85;;
8480;SDS011;4277;51.354;6.740;2023-10-13T14:57:09;19.70;;;4.97;;
8480;SDS011;4277;51.354;6.740;2023-10-13T14:59:34;15.25;;;5.20;;
8480;SDS011;4277;51.354;6.740;2023-10-13T15:02:03;16.40;;;5.35;;
8480;SDS011;4277;51.354;6.740;2023-10-13T15:04:29;17.65;;;5.20;;
8480;SDS011;4277;51.354;6.740;2023-10-13T15:06:58;14.77;;;4.90;;
8480;SDS011;4277;51.354;6.740;2023-10-13T15:09:26;12.80;;;4.45;;
8480;SDS011;4277;51.354;6.740;2023-10-13T15:11:52;14.77;;;4.80;;
8480;SDS011;4277;51.354;6.740;2023-10-13T15:14:19;12.18;;;5.10;;
8480;SDS011;4277;51.354;6.740;2023-10-13T15:16:45;11.80;;;4.95;;
8480;SDS011;4277;51.354;6.740;2023-10-13T15:19:11;13.43;;;4.88;;
8480;SDS011;4277;51.354;6.740;2023-10-13T15:21:37;15.80;;;4.57;;
8480;SDS011;4277;51.354;6.740;2023-10-13T15:24:05;13.55;;;4.72;;
8480;SDS011;4277;51.354;6.740;2023-10-13T15:26:46;12.40;;;4.90;;
8480;SDS011;4277;51.354;6.740;2023-10-13T15:29:17;12.93;;;5.07;;
8480;SDS011;4277;51.354;6.740;2023-10-13T15:31:50;11.70;;;4.80;;
8480;SDS011;4277;51.354;6.740;2023-10-13T15:34:39;14.88;;;4.85;;
8480;SDS011;4277;51.354;6.740;2023-10-13T15:37:05;17.08;;;5.25;;
8480;SDS011;4277;51.354;6.740;2023-10-13T15:39:31;14.93;;;4.88;;
8480;SDS011;4277;51.354;6.740;2023-10-13T15:41:57;15.10;;;5.75;;
8480;SDS011;4277;51.354;6.740;2023-10-13T15:44:26;12.70;;;4.75;;